sensor_id;sensor_type;location;lat;lon;timestamp;temperature;humidity
5415;DHT22;2730;51.512;7.504;2022-09-09T05:02:45;15.30;99.90
5415;DHT22;2730;51.512;7.504;2022-09-09T05:05:13;15.30;99.90
5415;DHT22;2730;51.512;7.504;2022-09-09T05:07:42;15.30;99.90
5415;DHT22;2730;51.512;7.504;2022-09-09T05:10:09;15.30;99.90
5415;DHT22;2730;51.512;7.504;2022-09-09T05:12:51;15.30;99.90
5415;DHT22;2730;51.512;7.504;2022-09-09T05:15:35;15.30;99.90
5415;DHT22;2730;51.512;7.504;2022-09-09T05:18:05;15.30;99.90
5415;DHT22;2730;51.512;7.504;2022-09-09T05:20:35;15.20;99.90
5415;DHT22;2730;51.512;7.504;2022-09-09T05:23:05;15.30;99.90
5415;DHT22;2730;51.512;7.504;2022-09-09T05:25:37;15.20;99.90
5415;DHT22;2730;51.512;7.504;2022-09-09T05:28:04;15.30;99.90
5415;DHT22;2730;51.512;7.504;2022-09-09T05:30:35;15.30;99.90
5415;DHT22;2730;51.512;7.504;2022-09-09T05:33:09;15.40;99.90
5415;DHT22;2730;51.512;7.504;2022-09-09T05:35:37;15.40;99.90
5415;DHT22;2730;51.512;7.504;2022-09-09T05:38:04;15.40;99.90
5415;DHT22;2730;51.512;7.504;2022-09-09T05:40:31;15.50;99.90
5415;DHT22;2730;51.512;7.504;2022-09-09T05:43:00;15.50;99.90
5415;DHT22;2730;51.512;7.504;2022-09-09T05:45:27;15.50;99.90
5415;DHT22;2730;51.512;7.504;2022-09-09T05:47:54;15.50;99.90
5415;DHT22;2730;51.512;7.504;2022-09-09T05:50:23;15.60;99.90
5415;DHT22;2730;51.512;7.504;2022-09-09T05:52:49;15.60;99.90
5415;DHT22;2730;51.512;7.504;2022-09-09T05:55:16;15.60;99.90
5415;DHT22;2730;51.512;7.504;2022-09-09T05:58:09;15.70;99.90
5415;DHT22;2730;51.512;7.504;2022-09-09T06:00:42;15.70;99.90
5415;DHT22;2730;51.512;7.504;2022-09-09T06:03:10;15.70;99.90
5415;DHT22;2730;51.512;7.504;2022-09-09T06:05:38;15.70;99.90
5415;DHT22;2730;51.512;7.504;2022-09-09T06:08:05;15.80;99.90
5415;DHT22;2730;51.512;7.504;2022-09-09T06:10:32;15.80;99.90
5415;DHT22;2730;51.512;7.504;2022-09-09T06:13:00;15.90;99.90
5415;DHT22;2730;51.512;7.504;2022-09-09T06:15:26;16.00;99.90
5415;DHT22;2730;51.512;7.504;2022-09-09T06:17:56;16.00;99.90
5415;DHT22;2730;51.512;7.504;2022-09-09T06:20:22;16.10;99.90
5415;DHT22;2730;51.512;7.504;2022-09-09T06:22:51;16.20;99.90
5415;DHT22;2730;51.512;7.504;2022-09-09T06:25:18;16.20;99.90
5415;DHT22;2730;51.512;7.504;2022-09-09T06:27:48;16.30;99.90
5415;DHT22;2730;51.512;7.504;2022-09-09T06:30:16;16.40;99.90
5415;DHT22;2730;51.512;7.504;2022-09-09T06:32:43;16.40;99.90
5415;DHT22;2730;51.512;7.504;2022-09-09T06:35:10;16.50;99.90
5415;DHT22;2730;51.512;7.504;2022-09-09T06:37:37;16.50;99.90
5415;DHT22;2730;51.512;7.504;2022-09-09T06:40:07;16.50;99.90
5415;DHT22;2730;51.512;7.504;2022-09-09T06:42:34;16.60;99.90
5415;DHT22;2730;51.512;7.504;2022-09-09T06:45:00;16.60;99.90
5415;DHT22;2730;51.512;7.504;2022-09-09T06:47:28;16.70;99.90
5415;DHT22;2730;51.512;7.504;2022-09-09T06:49:55;16.80;99.90
5415;DHT22;2730;51.512;7.504;2022-09-09T06:52:22;16.80;99.90
5415;DHT22;2730;51.512;7.504;2022-09-09T06:54:50;16.90;99.90
5415;DHT22;2730;51.512;7.504;2022-09-09T06:57:18;17.00;99.90
5415;DHT22;2730;51.512;7.504;2022-09-09T06:59:45;17.00;99.90
5415;DHT22;2730;51.512;7.504;2022-09-09T07:02:11;17.20;99.90
5415;DHT22;2730;51.512;7.504;2022-09-09T07:04:38;17.20;99.90
5415;DHT22;2730;51.512;7.504;2022-09-09T07:07:05;17.40;99.90
5415;DHT22;2730;51.512;7.504;2022-09-09T07:09:33;17.40;99.90
5415;DHT22;2730;51.512;7.504;2022-09-09T07:12:00;17.30;99.90
5415;DHT22;2730;51.512;7.504;2022-09-09T07:14:28;17.30;99.90
5415;DHT22;2730;51.512;7.504;2022-09-09T07:16:55;17.30;99.90
5415;DHT22;2730;51.512;7.504;2022-09-09T07:19:22;17.20;99.90
5415;DHT22;2730;51.512;7.504;2022-09-09T07:21:49;17.20;99.90
5415;DHT22;2730;51.512;7.504;2022-09-09T07:24:16;17.10;99.90
5415;DHT22;2730;51.512;7.504;2022-09-09T07:26:43;17.10;99.90
5415;DHT22;2730;51.512;7.504;2022-09-09T07:29:11;17.10;99.90
5415;DHT22;2730;51.512;7.504;2022-09-09T07:31:40;17.30;99.90
5415;DHT22;2730;51.512;7.504;2022-09-09T07:34:08;17.80;99.90
5415;DHT22;2730;51.512;7.504;2022-09-09T07:36:36;19.00;99.90
5415;DHT22;2730;51.512;7.504;2022-09-09T07:39:05;19.50;99.90
5415;DHT22;2730;51.512;7.504;2022-09-09T07:41:35;19.60;99.90
5415;DHT22;2730;51.512;7.504;2022-09-09T07:44:05;20.00;99.90
5415;DHT22;2730;51.512;7.504;2022-09-09T07:46:32;20.40;99.90
5415;DHT22;2730;51.512;7.504;2022-09-09T07:49:01;21.50;99.90
5415;DHT22;2730;51.512;7.504;2022-09-09T07:51:30;22.60;99.90
5415;DHT22;2730;51.512;7.504;2022-09-09T07:54:00;23.50;99.90
5415;DHT22;2730;51.512;7.504;2022-09-09T07:56:28;24.50;99.90
5415;DHT22;2730;51.512;7.504;2022-09-09T07:58:56;25.30;99.90
5415;DHT22;2730;51.512;7.504;2022-09-09T08:01:26;25.20;99.90
5415;DHT22;2730;51.512;7.504;2022-09-09T08:03:54;25.20;99.90
5415;DHT22;2730;51.512;7.504;2022-09-09T08:06:22;25.40;99.90
5415;DHT22;2730;51.512;7.504;2022-09-09T08:08:50;25.40;99.90
5415;DHT22;2730;51.512;7.504;2022-09-09T08:11:17;25.10;99.90
5415;DHT22;2730;51.512;7.504;2022-09-09T08:13:44;24.10;99.90
5415;DHT22;2730;51.512;7.504;2022-09-09T08:16:13;24.20;99.90
5415;DHT22;2730;51.512;7.504;2022-09-09T08:18:41;25.20;99.90
5415;DHT22;2730;51.512;7.504;2022-09-09T08:21:10;25.60;99.90
5415;DHT22;2730;51.512;7.504;2022-09-09T08:23:40;25.30;99.90
5415;DHT22;2730;51.512;7.504;2022-09-09T08:26:10;24.30;99.90
5415;DHT22;2730;51.512;7.504;2022-09-09T08:28:37;24.10;99.90
5415;DHT22;2730;51.512;7.504;2022-09-09T08:31:06;23.60;99.90
5415;DHT22;2730;51.512;7.504;2022-09-09T08:33:34;22.90;99.90
5415;DHT22;2730;51.512;7.504;2022-09-09T08:36:03;22.40;99.90
5415;DHT22;2730;51.512;7.504;2022-09-09T08:38:30;22.10;99.90
5415;DHT22;2730;51.512;7.504;2022-09-09T08:41:05;22.90;99.90
5415;DHT22;2730;51.512;7.504;2022-09-09T08:43:33;22.90;99.90
5415;DHT22;2730;51.512;7.504;2022-09-09T08:46:04;22.90;99.90
5415;DHT22;2730;51.512;7.504;2022-09-09T08:48:44;22.70;99.90
5415;DHT22;2730;51.512;7.504;2022-09-09T08:51:14;23.00;99.90
5415;DHT22;2730;51.512;7.504;2022-09-09T08:53:45;23.00;99.90
5415;DHT22;2730;51.512;7.504;2022-09-09T08:56:17;23.00;99.90
5415;DHT22;2730;51.512;7.504;2022-09-09T08:58:47;23.30;99.90
5415;DHT22;2730;51.512;7.504;2022-09-09T09:01:29;23.10;99.90
5415;DHT22;2730;51.512;7.504;2022-09-09T09:04:04;23.40;99.90
5415;DHT22;2730;51.512;7.504;2022-09-09T09:06:43;23.60;99.90
5415;DHT22;2730;51.512;7.504;2022-09-09T09:09:18;23.80;99.90
5415;DHT22;2730;51.512;7.504;2022-09-09T09:11:51;24.00;99.90
5415;DHT22;2730;51.512;7.504;2022-09-09T09:14:21;24.50;99.90
5415;DHT22;2730;51.512;7.504;2022-09-09T09:16:52;25.50;99.90
5415;DHT22;2730;51.512;7.504;2022-09-09T09:19:20;26.20;99.90
5415;DHT22;2730;51.512;7.504;2022-09-09T09:21:52;27.10;99.90
5415;DHT22;2730;51.512;7.504;2022-09-09T09:24:23;27.20;98.30
5415;DHT22;2730;51.512;7.504;2022-09-09T09:26:53;27.50;97.20
5415;DHT22;2730;51.512;7.504;2022-09-09T09:29:21;27.10;96.50
5415;DHT22;2730;51.512;7.504;2022-09-09T09:31:52;26.20;97.10
5415;DHT22;2730;51.512;7.504;2022-09-09T09:34:20;26.30;96.90
5415;DHT22;2730;51.512;7.504;2022-09-09T09:36:53;25.60;97.00
5415;DHT22;2730;51.512;7.504;2022-09-09T09:39:25;25.10;98.70
5415;DHT22;2730;51.512;7.504;2022-09-09T09:41:54;25.00;98.20
5415;DHT22;2730;51.512;7.504;2022-09-09T09:44:24;24.50;99.00
5415;DHT22;2730;51.512;7.504;2022-09-09T09:46:52;24.40;98.80
5415;DHT22;2730;51.512;7.504;2022-09-09T09:49:19;23.60;99.30
5415;DHT22;2730;51.512;7.504;2022-09-09T09:51:46;23.20;99.90
5415;DHT22;2730;51.512;7.504;2022-09-09T09:54:18;22.90;99.90
5415;DHT22;2730;51.512;7.504;2022-09-09T09:56:48;22.50;99.90
5415;DHT22;2730;51.512;7.504;2022-09-09T09:59:32;22.30;99.90
5415;DHT22;2730;51.512;7.504;2022-09-09T10:02:17;22.00;99.90
5415;DHT22;2730;51.512;7.504;2022-09-09T10:04:45;21.80;99.90
5415;DHT22;2730;51.512;7.504;2022-09-09T10:07:12;21.70;99.90
5415;DHT22;2730;51.512;7.504;2022-09-09T10:09:40;21.80;99.90
5415;DHT22;2730;51.512;7.504;2022-09-09T10:12:14;22.00;99.90
5415;DHT22;2730;51.512;7.504;2022-09-09T10:14:54;22.10;99.90
5415;DHT22;2730;51.512;7.504;2022-09-09T10:17:30;22.10;99.90
5415;DHT22;2730;51.512;7.504;2022-09-09T10:20:14;23.10;99.90
5415;DHT22;2730;51.512;7.504;2022-09-09T10:22:47;24.10;99.90
5415;DHT22;2730;51.512;7.504;2022-09-09T10:25:36;24.90;99.10
5415;DHT22;2730;51.512;7.504;2022-09-09T10:28:20;25.40;97.40
5415;DHT22;2730;51.512;7.504;2022-09-09T10:30:55;24.80;98.00
5415;DHT22;2730;51.512;7.504;2022-09-09T10:33:31;25.10;98.10
5415;DHT22;2730;51.512;7.504;2022-09-09T10:36:05;25.50;97.30
5415;DHT22;2730;51.512;7.504;2022-09-09T10:38:40;25.30;97.30
5415;DHT22;2730;51.512;7.504;2022-09-09T10:41:16;25.10;97.60
5415;DHT22;2730;51.512;7.504;2022-09-09T10:44:06;24.30;97.50
5415;DHT22;2730;51.512;7.504;2022-09-09T10:46:49;23.90;98.00
5415;DHT22;2730;51.512;7.504;2022-09-09T10:49:27;23.30;98.60
5415;DHT22;2730;51.512;7.504;2022-09-09T10:52:05;23.40;98.60
5415;DHT22;2730;51.512;7.504;2022-09-09T10:54:46;23.80;97.80
5415;DHT22;2730;51.512;7.504;2022-09-09T10:57:25;23.90;98.20
5415;DHT22;2730;51.512;7.504;2022-09-09T10:59:57;24.20;97.60
5415;DHT22;2730;51.512;7.504;2022-09-09T11:02:28;24.10;97.50
5415;DHT22;2730;51.512;7.504;2022-09-09T11:04:59;23.80;98.20
5415;DHT22;2730;51.512;7.504;2022-09-09T11:07:33;23.40;97.80
5415;DHT22;2730;51.512;7.504;2022-09-09T11:10:04;23.10;98.60
5415;DHT22;2730;51.512;7.504;2022-09-09T11:12:36;23.30;98.80
5415;DHT22;2730;51.512;7.504;2022-09-09T11:15:08;23.30;98.20
5415;DHT22;2730;51.512;7.504;2022-09-09T11:17:46;23.10;98.30
5415;DHT22;2730;51.512;7.504;2022-09-09T11:20:15;22.90;98.40
5415;DHT22;2730;51.512;7.504;2022-09-09T11:22:48;22.70;98.70
5415;DHT22;2730;51.512;7.504;2022-09-09T11:25:19;22.60;99.10
5415;DHT22;2730;51.512;7.504;2022-09-09T11:30:50;22.90;99.20
5415;DHT22;2730;51.512;7.504;2022-09-09T11:33:39;22.90;99.00
5415;DHT22;2730;51.512;7.504;2022-09-09T11:39:38;22.90;99.40
5415;DHT22;2730;51.512;7.504;2022-09-09T11:42:16;22.80;99.40
5415;DHT22;2730;51.512;7.504;2022-09-09T11:44:44;22.90;99.40
5415;DHT22;2730;51.512;7.504;2022-09-09T11:47:22;23.20;99.00
5415;DHT22;2730;51.512;7.504;2022-09-09T11:49:51;23.10;98.80
5415;DHT22;2730;51.512;7.504;2022-09-09T11:52:23;22.80;99.00
5415;DHT22;2730;51.512;7.504;2022-09-09T11:54:54;22.60;99.40
5415;DHT22;2730;51.512;7.504;2022-09-09T11:57:26;22.70;99.60
5415;DHT22;2730;51.512;7.504;2022-09-09T11:59:57;22.60;99.50
5415;DHT22;2730;51.512;7.504;2022-09-09T12:02:26;22.70;99.90
5415;DHT22;2730;51.512;7.504;2022-09-09T12:04:59;22.90;99.50
5415;DHT22;2730;51.512;7.504;2022-09-09T12:07:33;23.10;98.80
5415;DHT22;2730;51.512;7.504;2022-09-09T12:10:05;23.30;98.40
5415;DHT22;2730;51.512;7.504;2022-09-09T12:12:34;23.50;98.90
5415;DHT22;2730;51.512;7.504;2022-09-09T12:15:23;23.40;98.30
5415;DHT22;2730;51.512;7.504;2022-09-09T12:17:55;23.10;98.50
5415;DHT22;2730;51.512;7.504;2022-09-09T12:20:30;23.10;98.50
5415;DHT22;2730;51.512;7.504;2022-09-09T12:23:15;23.00;98.80
5415;DHT22;2730;51.512;7.504;2022-09-09T12:25:58;22.90;98.30
5415;DHT22;2730;51.512;7.504;2022-09-09T12:28:33;22.70;98.90
5415;DHT22;2730;51.512;7.504;2022-09-09T12:31:10;22.50;98.60
5415;DHT22;2730;51.512;7.504;2022-09-09T12:33:44;22.40;98.90
5415;DHT22;2730;51.512;7.504;2022-09-09T12:36:16;22.20;99.30
5415;DHT22;2730;51.512;7.504;2022-09-09T12:38:45;22.10;99.90
5415;DHT22;2730;51.512;7.504;2022-09-09T12:41:20;22.00;99.90
5415;DHT22;2730;51.512;7.504;2022-09-09T12:43:47;21.90;99.90
5415;DHT22;2730;51.512;7.504;2022-09-09T12:46:21;21.50;99.90
5415;DHT22;2730;51.512;7.504;2022-09-09T12:48:48;21.00;99.90
5415;DHT22;2730;51.512;7.504;2022-09-09T12:51:21;20.60;99.90
5415;DHT22;2730;51.512;7.504;2022-09-09T12:53:51;20.00;99.90
5415;DHT22;2730;51.512;7.504;2022-09-09T12:56:20;19.50;99.90
5415;DHT22;2730;51.512;7.504;2022-09-09T12:58:49;19.50;99.90
5415;DHT22;2730;51.512;7.504;2022-09-09T13:01:21;19.80;99.90
5415;DHT22;2730;51.512;7.504;2022-09-09T13:03:48;20.20;99.90
5415;DHT22;2730;51.512;7.504;2022-09-09T13:06:21;20.40;99.90
5415;DHT22;2730;51.512;7.504;2022-09-09T13:08:48;20.50;99.90
5415;DHT22;2730;51.512;7.504;2022-09-09T13:11:18;20.50;99.90
5415;DHT22;2730;51.512;7.504;2022-09-09T13:13:51;20.60;99.90
5415;DHT22;2730;51.512;7.504;2022-09-09T13:16:21;20.50;99.90
5415;DHT22;2730;51.512;7.504;2022-09-09T13:18:48;20.50;99.90
5415;DHT22;2730;51.512;7.504;2022-09-09T13:21:16;20.40;99.90
5415;DHT22;2730;51.512;7.504;2022-09-09T13:23:49;20.30;99.90
5415;DHT22;2730;51.512;7.504;2022-09-09T13:26:22;20.20;99.90
5415;DHT22;2730;51.512;7.504;2022-09-09T13:28:49;20.20;99.90
5415;DHT22;2730;51.512;7.504;2022-09-09T13:31:21;20.30;99.90
5415;DHT22;2730;51.512;7.504;2022-09-09T13:33:48;20.40;99.90
5415;DHT22;2730;51.512;7.504;2022-09-09T13:36:15;20.40;99.90
5415;DHT22;2730;51.512;7.504;2022-09-09T13:38:55;20.50;99.90
5415;DHT22;2730;51.512;7.504;2022-09-09T13:41:28;20.70;99.90
5415;DHT22;2730;51.512;7.504;2022-09-09T13:43:57;20.80;99.90
5415;DHT22;2730;51.512;7.504;2022-09-09T13:46:35;20.90;99.90
5415;DHT22;2730;51.512;7.504;2022-09-09T13:49:18;20.90;99.90
5415;DHT22;2730;51.512;7.504;2022-09-09T13:51:47;21.00;99.90
5415;DHT22;2730;51.512;7.504;2022-09-09T13:54:17;21.10;99.90
5415;DHT22;2730;51.512;7.504;2022-09-09T13:56:45;21.10;99.90
5415;DHT22;2730;51.512;7.504;2022-09-09T13:59:13;21.20;99.90
5415;DHT22;2730;51.512;7.504;2022-09-09T14:01:40;21.10;99.90
5415;DHT22;2730;51.512;7.504;2022-09-09T14:04:08;21.10;99.90
5415;DHT22;2730;51.512;7.504;2022-09-09T14:06:36;21.20;99.90
5415;DHT22;2730;51.512;7.504;2022-09-09T14:09:04;21.00;99.90
5415;DHT22;2730;51.512;7.504;2022-09-09T14:11:33;20.90;99.90
5415;DHT22;2730;51.512;7.504;2022-09-09T14:13:59;20.80;99.90
5415;DHT22;2730;51.512;7.504;2022-09-09T14:16:27;20.60;99.90
5415;DHT22;2730;51.512;7.504;2022-09-09T14:18:54;20.20;99.90
5415;DHT22;2730;51.512;7.504;2022-09-09T14:21:22;20.10;99.90
5415;DHT22;2730;51.512;7.504;2022-09-09T14:23:49;19.70;99.90
5415;DHT22;2730;51.512;7.504;2022-09-09T14:26:16;19.50;99.90
5415;DHT22;2730;51.512;7.504;2022-09-09T14:28:45;19.40;99.90
5415;DHT22;2730;51.512;7.504;2022-09-09T14:31:12;19.30;99.90
5415;DHT22;2730;51.512;7.504;2022-09-09T14:33:39;19.10;99.90
5415;DHT22;2730;51.512;7.504;2022-09-09T14:36:06;19.10;99.90
5415;DHT22;2730;51.512;7.504;2022-09-09T14:38:35;19.00;99.90
5415;DHT22;2730;51.512;7.504;2022-09-09T14:41:05;19.20;99.90
5415;DHT22;2730;51.512;7.504;2022-09-09T14:43:32;19.40;99.90
5415;DHT22;2730;51.512;7.504;2022-09-09T14:46:05;19.60;99.90
5415;DHT22;2730;51.512;7.504;2022-09-09T14:48:32;19.80;99.90
5415;DHT22;2730;51.512;7.504;2022-09-09T14:51:05;20.10;99.90
5415;DHT22;2730;51.512;7.504;2022-09-09T14:53:32;20.40;99.90
5415;DHT22;2730;51.512;7.504;2022-09-09T14:56:07;20.60;99.90
5415;DHT22;2730;51.512;7.504;2022-09-09T14:58:34;20.60;99.90
5415;DHT22;2730;51.512;7.504;2022-09-09T15:01:04;20.50;99.90
5415;DHT22;2730;51.512;7.504;2022-09-09T15:03:32;20.60;99.90
5415;DHT22;2730;51.512;7.504;2022-09-09T15:06:05;20.70;99.90
5415;DHT22;2730;51.512;7.504;2022-09-09T15:08:31;20.60;99.90
5415;DHT22;2730;51.512;7.504;2022-09-09T15:10:59;20.50;99.90
5415;DHT22;2730;51.512;7.504;2022-09-09T15:13:26;20.40;99.90
5415;DHT22;2730;51.512;7.504;2022-09-09T15:15:53;20.40;99.90
5415;DHT22;2730;51.512;7.504;2022-09-09T15:18:22;20.20;99.90
5415;DHT22;2730;51.512;7.504;2022-09-09T15:20:48;20.10;99.90
5415;DHT22;2730;51.512;7.504;2022-09-09T15:23:16;20.00;99.90
5415;DHT22;2730;51.512;7.504;2022-09-09T15:25:53;19.90;99.90
5415;DHT22;2730;51.512;7.504;2022-09-09T15:28:21;20.10;99.90
5415;DHT22;2730;51.512;7.504;2022-09-09T15:30:48;20.10;99.90
5415;DHT22;2730;51.512;7.504;2022-09-09T15:33:17;20.20;99.90
5415;DHT22;2730;51.512;7.504;2022-09-09T15:35:46;20.20;99.90
5415;DHT22;2730;51.512;7.504;2022-09-09T15:38:13;20.20;99.90
5415;DHT22;2730;51.512;7.504;2022-09-09T15:40:41;20.10;99.90
5415;DHT22;2730;51.512;7.504;2022-09-09T15:43:09;19.90;99.90
5415;DHT22;2730;51.512;7.504;2022-09-09T15:45:36;19.50;99.90
5415;DHT22;2730;51.512;7.504;2022-09-09T15:48:04;19.30;99.90
5415;DHT22;2730;51.512;7.504;2022-09-09T15:50:31;19.00;99.90
5415;DHT22;2730;51.512;7.504;2022-09-09T15:52:59;18.60;99.90
5415;DHT22;2730;51.512;7.504;2022-09-09T15:55:26;18.10;99.90
5415;DHT22;2730;51.512;7.504;2022-09-09T15:57:53;17.90;99.90
5415;DHT22;2730;51.512;7.504;2022-09-09T16:00:21;17.60;99.90
5415;DHT22;2730;51.512;7.504;2022-09-09T16:02:48;17.30;99.90
5415;DHT22;2730;51.512;7.504;2022-09-09T16:05:15;17.10;99.90
5415;DHT22;2730;51.512;7.504;2022-09-09T16:07:42;16.80;99.90
5415;DHT22;2730;51.512;7.504;2022-09-09T16:10:11;16.70;99.90
5415;DHT22;2730;51.512;7.504;2022-09-09T16:12:39;16.70;99.90
5415;DHT22;2730;51.512;7.504;2022-09-09T16:15:06;16.60;99.90
5415;DHT22;2730;51.512;7.504;2022-09-09T16:17:51;16.50;99.90
5415;DHT22;2730;51.512;7.504;2022-09-09T16:20:29;16.50;99.90
5415;DHT22;2730;51.512;7.504;2022-09-09T16:22:58;16.40;99.90
5415;DHT22;2730;51.512;7.504;2022-09-09T16:28:51;16.30;99.90
5415;DHT22;2730;51.512;7.504;2022-09-09T16:31:23;16.30;99.90
5415;DHT22;2730;51.512;7.504;2022-09-09T16:34:01;16.30;99.90
5415;DHT22;2730;51.512;7.504;2022-09-09T16:36:30;16.30;99.90
5415;DHT22;2730;51.512;7.504;2022-09-09T16:39:01;16.30;99.90
5415;DHT22;2730;51.512;7.504;2022-09-09T16:41:30;16.40;99.90
5415;DHT22;2730;51.512;7.504;2022-09-09T16:44:37;16.40;99.90
5415;DHT22;2730;51.512;7.504;2022-09-09T16:47:04;16.40;99.90
5415;DHT22;2730;51.512;7.504;2022-09-09T16:49:31;16.40;99.90
5415;DHT22;2730;51.512;7.504;2022-09-09T16:52:06;16.40;99.90
5415;DHT22;2730;51.512;7.504;2022-09-09T16:54:40;16.50;99.90
5415;DHT22;2730;51.512;7.504;2022-09-09T16:57:10;16.60;99.90
5415;DHT22;2730;51.512;7.504;2022-09-09T16:59:49;16.70;99.90
5415;DHT22;2730;51.512;7.504;2022-09-09T17:05:53;16.80;99.90
5415;DHT22;2730;51.512;7.504;2022-09-09T17:08:36;16.80;99.90
5415;DHT22;2730;51.512;7.504;2022-09-09T17:11:15;16.90;99.90
5415;DHT22;2730;51.512;7.504;2022-09-09T17:16:45;16.90;99.90
5415;DHT22;2730;51.512;7.504;2022-09-09T17:19:12;16.80;99.90
5415;DHT22;2730;51.512;7.504;2022-09-09T17:21:40;16.80;99.90
5415;DHT22;2730;51.512;7.504;2022-09-09T17:24:10;16.70;99.90
5415;DHT22;2730;51.512;7.504;2022-09-09T17:26:39;16.70;99.90
5415;DHT22;2730;51.512;7.504;2022-09-09T17:29:11;16.70;99.90
5415;DHT22;2730;51.512;7.504;2022-09-09T17:32:19;16.70;99.90
5415;DHT22;2730;51.512;7.504;2022-09-09T17:34:35;16.70;99.90
5415;DHT22;2730;51.512;7.504;2022-09-09T17:37:07;16.70;99.90
5415;DHT22;2730;51.512;7.504;2022-09-09T17:39:34;16.70;99.90
5415;DHT22;2730;51.512;7.504;2022-09-09T17:42:01;16.60;99.90
5415;DHT22;2730;51.512;7.504;2022-09-09T17:44:28;16.60;99.90
5415;DHT22;2730;51.512;7.504;2022-09-09T17:46:57;16.60;99.90
5415;DHT22;2730;51.512;7.504;2022-09-09T17:49:24;16.50;99.90
5415;DHT22;2730;51.512;7.504;2022-09-09T17:51:53;16.50;99.90
5415;DHT22;2730;51.512;7.504;2022-09-09T17:54:21;16.40;99.90
5415;DHT22;2730;51.512;7.504;2022-09-09T17:56:48;16.40;99.90
5415;DHT22;2730;51.512;7.504;2022-09-09T17:59:17;16.40;99.90
5415;DHT22;2730;51.512;7.504;2022-09-09T18:01:47;16.40;99.90
5415;DHT22;2730;51.512;7.504;2022-09-09T18:04:16;16.40;99.90
5415;DHT22;2730;51.512;7.504;2022-09-09T18:06:48;16.30;99.90
5415;DHT22;2730;51.512;7.504;2022-09-09T18:09:24;16.30;99.90
5415;DHT22;2730;51.512;7.504;2022-09-09T18:11:53;16.30;99.90
5415;DHT22;2730;51.512;7.504;2022-09-09T18:14:22;16.40;99.90
5415;DHT22;2730;51.512;7.504;2022-09-09T18:16:50;16.40;99.90
5415;DHT22;2730;51.512;7.504;2022-09-09T18:19:22;16.40;99.90
5415;DHT22;2730;51.512;7.504;2022-09-09T18:21:50;16.30;99.90
5415;DHT22;2730;51.512;7.504;2022-09-09T18:24:20;16.30;99.90
5415;DHT22;2730;51.512;7.504;2022-09-09T18:26:48;16.30;99.90
5415;DHT22;2730;51.512;7.504;2022-09-09T18:29:17;16.20;99.90
5415;DHT22;2730;51.512;7.504;2022-09-09T18:31:44;16.20;99.90
5415;DHT22;2730;51.512;7.504;2022-09-09T18:34:15;16.20;99.90
5415;DHT22;2730;51.512;7.504;2022-09-09T18:36:44;16.20;99.90
5415;DHT22;2730;51.512;7.504;2022-09-09T18:39:12;16.10;99.90
5415;DHT22;2730;51.512;7.504;2022-09-09T18:41:42;16.10;99.90
5415;DHT22;2730;51.512;7.504;2022-09-09T18:44:11;16.10;99.90
5415;DHT22;2730;51.512;7.504;2022-09-09T18:46:39;16.10;99.90
5415;DHT22;2730;51.512;7.504;2022-09-09T18:49:06;16.10;99.90
5415;DHT22;2730;51.512;7.504;2022-09-09T18:51:36;16.20;99.90
5415;DHT22;2730;51.512;7.504;2022-09-09T18:54:07;16.20;99.90
5415;DHT22;2730;51.512;7.504;2022-09-09T18:56:35;16.30;99.90
5415;DHT22;2730;51.512;7.504;2022-09-09T18:59:05;16.30;99.90
5415;DHT22;2730;51.512;7.504;2022-09-09T19:01:32;16.40;99.90
5415;DHT22;2730;51.512;7.504;2022-09-09T19:04:01;16.40;99.90
5415;DHT22;2730;51.512;7.504;2022-09-09T19:06:29;16.40;99.90
5415;DHT22;2730;51.512;7.504;2022-09-09T19:08:56;16.30;99.90
5415;DHT22;2730;51.512;7.504;2022-09-09T19:11:25;16.30;99.90
5415;DHT22;2730;51.512;7.504;2022-09-09T19:13:53;16.30;99.90
5415;DHT22;2730;51.512;7.504;2022-09-09T19:16:23;16.20;99.90
5415;DHT22;2730;51.512;7.504;2022-09-09T19:18:50;16.10;99.90
5415;DHT22;2730;51.512;7.504;2022-09-09T19:21:19;16.00;99.90
5415;DHT22;2730;51.512;7.504;2022-09-09T19:23:48;16.00;99.90
5415;DHT22;2730;51.512;7.504;2022-09-09T19:26:16;15.90;99.90
5415;DHT22;2730;51.512;7.504;2022-09-09T19:28:43;15.80;99.90
5415;DHT22;2730;51.512;7.504;2022-09-09T19:31:12;15.80;99.90
5415;DHT22;2730;51.512;7.504;2022-09-09T19:33:42;15.80;99.90
5415;DHT22;2730;51.512;7.504;2022-09-09T19:36:11;15.70;99.90
5415;DHT22;2730;51.512;7.504;2022-09-09T19:38:37;15.70;99.90
5415;DHT22;2730;51.512;7.504;2022-09-09T19:41:08;15.70;99.90
5415;DHT22;2730;51.512;7.504;2022-09-09T19:43:35;15.80;99.90
5415;DHT22;2730;51.512;7.504;2022-09-09T19:46:05;15.80;99.90
5415;DHT22;2730;51.512;7.504;2022-09-09T19:48:35;15.90;99.90
5415;DHT22;2730;51.512;7.504;2022-09-09T19:51:06;15.80;99.90
5415;DHT22;2730;51.512;7.504;2022-09-09T19:53:35;15.90;99.90
5415;DHT22;2730;51.512;7.504;2022-09-09T19:56:03;15.90;99.90
5415;DHT22;2730;51.512;7.504;2022-09-09T19:58:30;15.90;99.90
5415;DHT22;2730;51.512;7.504;2022-09-09T20:01:04;16.00;99.90
5415;DHT22;2730;51.512;7.504;2022-09-09T20:03:31;15.90;99.90
5415;DHT22;2730;51.512;7.504;2022-09-09T20:05:58;16.00;99.90
5415;DHT22;2730;51.512;7.504;2022-09-09T20:08:26;15.90;99.90
5415;DHT22;2730;51.512;7.504;2022-09-09T20:10:53;15.90;99.90
5415;DHT22;2730;51.512;7.504;2022-09-09T20:13:20;15.90;99.90
5415;DHT22;2730;51.512;7.504;2022-09-09T20:15:58;15.80;99.90
5415;DHT22;2730;51.512;7.504;2022-09-09T20:18:27;15.80;99.90
5415;DHT22;2730;51.512;7.504;2022-09-09T20:20:56;15.80;99.90
5415;DHT22;2730;51.512;7.504;2022-09-09T20:23:25;15.80;99.90
5415;DHT22;2730;51.512;7.504;2022-09-09T20:25:53;15.80;99.90
5415;DHT22;2730;51.512;7.504;2022-09-09T20:28:20;15.80;99.90
5415;DHT22;2730;51.512;7.504;2022-09-09T20:30:47;15.70;99.90
5415;DHT22;2730;51.512;7.504;2022-09-09T20:33:15;15.80;99.90
5415;DHT22;2730;51.512;7.504;2022-09-09T20:35:42;15.70;99.90
5415;DHT22;2730;51.512;7.504;2022-09-09T20:38:09;15.70;99.90
5415;DHT22;2730;51.512;7.504;2022-09-09T20:40:37;15.60;99.90
5415;DHT22;2730;51.512;7.504;2022-09-09T20:43:05;15.60;99.90
5415;DHT22;2730;51.512;7.504;2022-09-09T20:45:34;15.60;99.90
5415;DHT22;2730;51.512;7.504;2022-09-09T20:48:03;15.70;99.90
5415;DHT22;2730;51.512;7.504;2022-09-09T20:50:29;15.60;99.90
5415;DHT22;2730;51.512;7.504;2022-09-09T20:52:56;15.60;99.90
5415;DHT22;2730;51.512;7.504;2022-09-09T20:55:23;15.60;99.90
5415;DHT22;2730;51.512;7.504;2022-09-09T20:57:52;15.50;99.90
5415;DHT22;2730;51.512;7.504;2022-09-09T21:00:22;15.50;99.90
5415;DHT22;2730;51.512;7.504;2022-09-09T21:02:49;15.50;99.90
5415;DHT22;2730;51.512;7.504;2022-09-09T21:05:16;15.60;99.90
5415;DHT22;2730;51.512;7.504;2022-09-09T21:07:44;15.60;99.90
5415;DHT22;2730;51.512;7.504;2022-09-09T21:10:11;15.60;99.90
5415;DHT22;2730;51.512;7.504;2022-09-09T21:12:38;15.70;99.90
5415;DHT22;2730;51.512;7.504;2022-09-09T21:15:07;15.60;99.90
5415;DHT22;2730;51.512;7.504;2022-09-09T21:17:34;15.70;99.90
5415;DHT22;2730;51.512;7.504;2022-09-09T21:20:01;15.70;99.90
5415;DHT22;2730;51.512;7.504;2022-09-09T21:22:28;15.70;99.90
5415;DHT22;2730;51.512;7.504;2022-09-09T21:24:56;15.70;99.90
5415;DHT22;2730;51.512;7.504;2022-09-09T21:27:23;15.80;99.90
5415;DHT22;2730;51.512;7.504;2022-09-09T21:29:50;15.70;99.90
5415;DHT22;2730;51.512;7.504;2022-09-09T21:32:18;15.70;99.90
5415;DHT22;2730;51.512;7.504;2022-09-09T21:34:45;15.60;99.90
5415;DHT22;2730;51.512;7.504;2022-09-09T21:37:12;15.60;99.90
5415;DHT22;2730;51.512;7.504;2022-09-09T21:39:39;15.60;99.90